sensor_id;sensor_type;location;lat;lon;timestamp;pressure;altitude;pressure_sealevel;temperature;humidity
74834;BME280;63361;52.384;20.930;2023-10-31T00:01:21;99464.63;;;9.28;100.00
74834;BME280;63361;52.384;20.930;2023-10-31T00:03:46;99455.06;;;9.36;100.00
74834;BME280;63361;52.384;20.930;2023-10-31T00:06:11;99455.63;;;9.33;100.00
74834;BME280;63361;52.384;20.930;2023-10-31T00:08:37;99458.00;;;9.21;100.00
74834;BME280;63361;52.384;20.930;2023-10-31T00:11:02;99443.38;;;9.27;100.00
74834;BME280;63361;52.384;20.930;2023-10-31T00:13:27;99434.34;;;9.17;100.00
74834;BME280;63361;52.384;20.930;2023-10-31T00:15:53;99442.41;;;9.17;100.00
74834;BME280;63361;52.384;20.930;2023-10-31T00:18:18;99437.59;;;9.33;100.00
74834;BME280;63361;52.384;20.930;2023-10-31T00:20:45;99425.69;;;9.21;100.00
74834;BME280;63361;52.384;20.930;2023-10-31T00:23:10;99433.50;;;9.36;100.00
74834;BME280;63361;52.384;20.930;2023-10-31T00:25:35;99425.34;;;9.41;100.00
74834;BME280;63361;52.384;20.930;2023-10-31T00:28:00;99407.16;;;9.33;100.00
74834;BME280;63361;52.384;20.930;2023-10-31T00:30:26;99415.56;;;9.31;100.00
74834;BME280;63361;52.384;20.930;2023-10-31T00:32:51;99381.94;;;9.29;100.00
74834;BME280;63361;52.384;20.930;2023-10-31T00:35:16;99400.81;;;9.42;100.00
74834;BME280;63361;52.384;20.930;2023-10-31T00:37:42;99393.69;;;9.33;100.00
74834;BME280;63361;52.384;20.930;2023-10-31T00:40:07;99409.69;;;9.43;100.00
74834;BME280;63361;52.384;20.930;2023-10-31T00:42:36;99400.16;;;9.18;100.00
74834;BME280;63361;52.384;20.930;2023-10-31T00:45:02;99389.38;;;9.18;100.00
74834;BME280;63361;52.384;20.930;2023-10-31T00:47:27;99389.72;;;9.30;100.00
74834;BME280;63361;52.384;20.930;2023-10-31T00:49:53;99386.91;;;9.35;100.00
74834;BME280;63361;52.384;20.930;2023-10-31T00:52:18;99399.28;;;9.36;100.00
74834;BME280;63361;52.384;20.930;2023-10-31T00:54:43;99385.31;;;9.34;100.00
74834;BME280;63361;52.384;20.930;2023-10-31T00:57:09;99387.06;;;9.44;100.00
74834;BME280;63361;52.384;20.930;2023-10-31T00:59:34;99369.47;;;9.33;100.00
74834;BME280;63361;52.384;20.930;2023-10-31T01:01:59;99361.72;;;9.31;100.00
74834;BME280;63361;52.384;20.930;2023-10-31T01:04:25;99344.84;;;9.26;100.00
74834;BME280;63361;52.384;20.930;2023-10-31T01:06:51;99345.34;;;9.55;100.00
74834;BME280;63361;52.384;20.930;2023-10-31T01:09:16;99337.19;;;9.46;100.00
74834;BME280;63361;52.384;20.930;2023-10-31T01:11:42;99332.78;;;9.50;100.00
74834;BME280;63361;52.384;20.930;2023-10-31T01:14:07;99337.06;;;9.51;100.00
74834;BME280;63361;52.384;20.930;2023-10-31T01:16:32;99325.56;;;9.32;100.00
74834;BME280;63361;52.384;20.930;2023-10-31T01:18:58;99324.16;;;9.21;100.00
74834;BME280;63361;52.384;20.930;2023-10-31T01:21:23;99321.59;;;9.30;100.00
74834;BME280;63361;52.384;20.930;2023-10-31T01:23:49;99324.81;;;9.32;100.00
74834;BME280;63361;52.384;20.930;2023-10-31T01:26:14;99310.59;;;9.12;100.00
74834;BME280;63361;52.384;20.930;2023-10-31T01:28:40;99303.91;;;9.10;100.00
74834;BME280;63361;52.384;20.930;2023-10-31T01:31:05;99289.75;;;9.04;100.00
74834;BME280;63361;52.384;20.930;2023-10-31T01:33:31;99273.19;;;8.97;100.00
74834;BME280;63361;52.384;20.930;2023-10-31T01:35:57;99273.19;;;8.97;100.00
74834;BME280;63361;52.384;20.930;2023-10-31T01:38:22;99278.09;;;9.09;100.00
74834;BME280;63361;52.384;20.930;2023-10-31T01:40:50;99254.66;;;9.09;100.00
74834;BME280;63361;52.384;20.930;2023-10-31T01:43:32;99280.72;;;9.28;100.00
74834;BME280;63361;52.384;20.930;2023-10-31T01:45:58;99273.81;;;9.35;100.00
74834;BME280;63361;52.384;20.930;2023-10-31T01:48:24;99283.78;;;9.35;100.00
74834;BME280;63361;52.384;20.930;2023-10-31T01:50:51;99274.91;;;9.48;100.00
74834;BME280;63361;52.384;20.930;2023-10-31T01:53:16;99275.53;;;9.59;100.00
74834;BME280;63361;52.384;20.930;2023-10-31T01:55:43;99287.38;;;9.58;100.00
74834;BME280;63361;52.384;20.930;2023-10-31T01:58:09;99265.44;;;9.50;100.00
74834;BME280;63361;52.384;20.930;2023-10-31T02:00:36;99258.94;;;9.65;100.00
74834;BME280;63361;52.384;20.930;2023-10-31T02:03:05;99245.88;;;9.59;100.00
74834;BME280;63361;52.384;20.930;2023-10-31T02:05:30;99229.59;;;9.64;100.00
74834;BME280;63361;52.384;20.930;2023-10-31T02:07:57;99216.44;;;9.62;100.00
74834;BME280;63361;52.384;20.930;2023-10-31T02:10:22;99190.06;;;9.73;100.00
74834;BME280;63361;52.384;20.930;2023-10-31T02:12:48;99169.19;;;9.78;100.00
74834;BME280;63361;52.384;20.930;2023-10-31T02:15:14;99185.88;;;9.67;100.00
74834;BME280;63361;52.384;20.930;2023-10-31T02:17:39;99188.88;;;9.65;100.00
74834;BME280;63361;52.384;20.930;2023-10-31T02:20:05;99182.34;;;9.80;100.00
74834;BME280;63361;52.384;20.930;2023-10-31T02:22:31;99167.59;;;9.77;100.00
74834;BME280;63361;52.384;20.930;2023-10-31T02:24:56;99161.19;;;9.87;100.00
74834;BME280;63361;52.384;20.930;2023-10-31T02:27:21;99145.66;;;9.70;100.00
74834;BME280;63361;52.384;20.930;2023-10-31T02:29:46;99161.41;;;9.77;100.00
74834;BME280;63361;52.384;20.930;2023-10-31T02:32:12;99172.44;;;9.89;100.00
74834;BME280;63361;52.384;20.930;2023-10-31T02:34:37;99161.78;;;9.84;100.00
74834;BME280;63361;52.384;20.930;2023-10-31T02:37:03;99166.88;;;9.85;100.00
74834;BME280;63361;52.384;20.930;2023-10-31T02:39:28;99166.94;;;9.94;100.00
74834;BME280;63361;52.384;20.930;2023-10-31T02:41:53;99154.09;;;9.91;100.00
74834;BME280;63361;52.384;20.930;2023-10-31T02:44:18;99145.91;;;9.82;100.00
74834;BME280;63361;52.384;20.930;2023-10-31T02:46:44;99142.81;;;9.89;100.00
74834;BME280;63361;52.384;20.930;2023-10-31T02:49:09;99139.50;;;9.92;100.00
74834;BME280;63361;52.384;20.930;2023-10-31T02:51:35;99156.94;;;9.95;100.00
74834;BME280;63361;52.384;20.930;2023-10-31T02:54:00;99139.06;;;9.99;100.00
74834;BME280;63361;52.384;20.930;2023-10-31T02:56:25;99125.97;;;10.06;100.00
74834;BME280;63361;52.384;20.930;2023-10-31T02:58:51;99122.88;;;9.99;100.00
74834;BME280;63361;52.384;20.930;2023-10-31T03:01:16;99123.88;;;10.03;100.00
74834;BME280;63361;52.384;20.930;2023-10-31T03:03:43;99117.38;;;10.04;100.00
74834;BME280;63361;52.384;20.930;2023-10-31T03:06:08;99099.91;;;10.01;100.00
74834;BME280;63361;52.384;20.930;2023-10-31T03:08:33;99096.59;;;10.04;100.00
74834;BME280;63361;52.384;20.930;2023-10-31T03:10:59;99090.28;;;10.09;100.00
74834;BME280;63361;52.384;20.930;2023-10-31T03:13:24;99096.31;;;10.06;100.00
74834;BME280;63361;52.384;20.930;2023-10-31T03:15:49;99085.94;;;9.99;100.00
74834;BME280;63361;52.384;20.930;2023-10-31T03:18:15;99073.13;;;10.05;100.00
74834;BME280;63361;52.384;20.930;2023-10-31T03:20:40;99080.84;;;9.98;100.00
74834;BME280;63361;52.384;20.930;2023-10-31T03:23:06;99098.06;;;10.10;100.00
74834;BME280;63361;52.384;20.930;2023-10-31T03:25:31;99085.22;;;10.07;100.00
74834;BME280;63361;52.384;20.930;2023-10-31T03:27:56;99085.56;;;10.14;100.00
74834;BME280;63361;52.384;20.930;2023-10-31T03:30:22;99085.47;;;10.19;100.00
74834;BME280;63361;52.384;20.930;2023-10-31T03:32:47;99087.22;;;10.24;100.00
74834;BME280;63361;52.384;20.930;2023-10-31T03:35:12;99077.88;;;10.21;100.00
74834;BME280;63361;52.384;20.930;2023-10-31T03:37:38;99069.81;;;10.30;100.00
74834;BME280;63361;52.384;20.930;2023-10-31T03:40:10;99075.19;;;10.30;100.00
74834;BME280;63361;52.384;20.930;2023-10-31T03:42:35;99069.69;;;10.44;100.00
74834;BME280;63361;52.384;20.930;2023-10-31T03:45:00;99051.59;;;10.36;100.00
74834;BME280;63361;52.384;20.930;2023-10-31T03:47:26;99057.19;;;10.48;100.00
74834;BME280;63361;52.384;20.930;2023-10-31T03:49:51;99035.59;;;10.48;100.00
74834;BME280;63361;52.384;20.930;2023-10-31T03:52:16;99054.00;;;10.54;100.00
74834;BME280;63361;52.384;20.930;2023-10-31T03:54:42;99035.94;;;10.55;100.00
74834;BME280;63361;52.384;20.930;2023-10-31T03:57:07;99021.97;;;10.53;100.00
74834;BME280;63361;52.384;20.930;2023-10-31T03:59:32;99014.19;;;10.60;100.00
74834;BME280;63361;52.384;20.930;2023-10-31T04:01:57;99005.00;;;10.61;100.00
74834;BME280;63361;52.384;20.930;2023-10-31T04:04:23;98990.25;;;10.67;100.00
74834;BME280;63361;52.384;20.930;2023-10-31T04:06:48;98983.41;;;10.61;100.00
74834;BME280;63361;52.384;20.930;2023-10-31T04:09:13;99004.38;;;10.73;100.00
74834;BME280;63361;52.384;20.930;2023-10-31T04:11:39;98987.75;;;10.79;100.00
74834;BME280;63361;52.384;20.930;2023-10-31T04:14:05;98991.53;;;10.87;100.00
74834;BME280;63361;52.384;20.930;2023-10-31T04:16:31;98978.34;;;10.85;100.00
74834;BME280;63361;52.384;20.930;2023-10-31T04:18:56;98965.19;;;10.75;100.00
74834;BME280;63361;52.384;20.930;2023-10-31T04:21:21;98969.31;;;10.90;100.00
74834;BME280;63361;52.384;20.930;2023-10-31T04:23:47;98980.75;;;11.04;100.00
74834;BME280;63361;52.384;20.930;2023-10-31T04:26:12;98971.69;;;11.00;100.00
74834;BME280;63361;52.384;20.930;2023-10-31T04:28:38;98984.09;;;11.18;100.00
74834;BME280;63361;52.384;20.930;2023-10-31T04:31:04;98948.06;;;11.14;100.00
74834;BME280;63361;52.384;20.930;2023-10-31T04:33:29;98956.28;;;11.26;100.00
74834;BME280;63361;52.384;20.930;2023-10-31T04:35:55;98954.69;;;11.34;100.00
74834;BME280;63361;52.384;20.930;2023-10-31T04:38:20;98918.16;;;11.19;100.00
74834;BME280;63361;52.384;20.930;2023-10-31T04:40:45;98941.66;;;11.36;100.00
74834;BME280;63361;52.384;20.930;2023-10-31T04:43:11;98943.09;;;11.42;100.00
74834;BME280;63361;52.384;20.930;2023-10-31T04:45:36;98948.31;;;11.47;100.00
74834;BME280;63361;52.384;20.930;2023-10-31T04:48:02;98918.53;;;11.64;100.00
74834;BME280;63361;52.384;20.930;2023-10-31T04:50:27;98919.03;;;11.58;100.00
74834;BME280;63361;52.384;20.930;2023-10-31T04:52:52;98878.03;;;11.56;100.00
74834;BME280;63361;52.384;20.930;2023-10-31T04:55:18;98903.56;;;11.84;100.00
74834;BME280;63361;52.384;20.930;2023-10-31T04:57:43;98907.16;;;11.97;100.00
74834;BME280;63361;52.384;20.930;2023-10-31T05:00:09;98889.38;;;12.17;100.00
74834;BME280;63361;52.384;20.930;2023-10-31T05:02:34;98888.41;;;12.21;100.00
74834;BME280;63361;52.384;20.930;2023-10-31T05:04:59;98875.63;;;12.30;100.00
74834;BME280;63361;52.384;20.930;2023-10-31T05:07:25;98872.78;;;12.48;100.00
74834;BME280;63361;52.384;20.930;2023-10-31T05:09:50;98871.13;;;12.55;100.00
74834;BME280;63361;52.384;20.930;2023-10-31T05:12:15;98873.78;;;12.64;100.00
74834;BME280;63361;52.384;20.930;2023-10-31T05:14:41;98850.47;;;12.72;100.00
74834;BME280;63361;52.384;20.930;2023-10-31T05:17:06;98851.84;;;12.78;100.00
74834;BME280;63361;52.384;20.930;2023-10-31T05:19:32;98833.13;;;12.85;100.00
74834;BME280;63361;52.384;20.930;2023-10-31T05:21:57;98859.53;;;13.09;100.00
74834;BME280;63361;52.384;20.930;2023-10-31T05:24:22;98845.97;;;13.09;100.00
74834;BME280;63361;52.384;20.930;2023-10-31T05:26:47;98842.34;;;13.04;100.00
74834;BME280;63361;52.384;20.930;2023-10-31T05:29:13;98841.97;;;12.94;100.00
74834;BME280;63361;52.384;20.930;2023-10-31T05:31:38;98835.94;;;13.09;100.00
74834;BME280;63361;52.384;20.930;2023-10-31T05:34:04;98833.19;;;13.30;100.00
74834;BME280;63361;52.384;20.930;2023-10-31T05:36:29;98838.84;;;13.37;100.00
74834;BME280;63361;52.384;20.930;2023-10-31T05:38:55;98848.13;;;13.60;100.00
74834;BME280;63361;52.384;20.930;2023-10-31T05:41:21;98833.47;;;13.73;100.00
74834;BME280;63361;52.384;20.930;2023-10-31T05:43:46;98828.59;;;13.67;100.00
74834;BME280;63361;52.384;20.930;2023-10-31T05:46:12;98833.91;;;13.63;100.00
74834;BME280;63361;52.384;20.930;2023-10-31T05:48:43;98819.53;;;13.63;100.00
74834;BME280;63361;52.384;20.930;2023-10-31T05:51:15;98823.63;;;13.69;100.00
74834;BME280;63361;52.384;20.930;2023-10-31T05:53:41;98803.94;;;13.60;100.00
74834;BME280;63361;52.384;20.930;2023-10-31T05:56:08;98816.97;;;13.54;100.00
74834;BME280;63361;52.384;20.930;2023-10-31T05:58:34;98832.75;;;13.64;100.00
74834;BME280;63361;52.384;20.930;2023-10-31T06:01:00;98845.91;;;13.75;100.00
74834;BME280;63361;52.384;20.930;2023-10-31T06:03:25;98824.75;;;13.68;100.00
74834;BME280;63361;52.384;20.930;2023-10-31T06:05:50;98808.50;;;13.44;100.00
74834;BME280;63361;52.384;20.930;2023-10-31T06:08:16;98818.53;;;13.43;100.00
74834;BME280;63361;52.384;20.930;2023-10-31T06:10:41;98825.19;;;13.46;100.00
74834;BME280;63361;52.384;20.930;2023-10-31T06:13:06;98788.13;;;13.62;100.00
74834;BME280;63361;52.384;20.930;2023-10-31T06:15:32;98811.88;;;13.53;100.00
74834;BME280;63361;52.384;20.930;2023-10-31T06:17:57;98804.84;;;13.27;100.00
74834;BME280;63361;52.384;20.930;2023-10-31T06:20:22;98804.94;;;13.19;100.00
74834;BME280;63361;52.384;20.930;2023-10-31T06:22:49;98808.97;;;13.13;100.00
74834;BME280;63361;52.384;20.930;2023-10-31T06:25:14;98812.84;;;13.24;100.00
74834;BME280;63361;52.384;20.930;2023-10-31T06:27:39;98801.69;;;13.25;100.00
74834;BME280;63361;52.384;20.930;2023-10-31T06:30:05;98812.41;;;13.46;100.00
74834;BME280;63361;52.384;20.930;2023-10-31T06:32:30;98807.25;;;13.53;100.00
74834;BME280;63361;52.384;20.930;2023-10-31T06:34:56;98824.75;;;13.68;100.00
74834;BME280;63361;52.384;20.930;2023-10-31T06:37:21;98807.13;;;13.62;100.00
74834;BME280;63361;52.384;20.930;2023-10-31T06:39:46;98798.66;;;13.51;100.00
74834;BME280;63361;52.384;20.930;2023-10-31T06:42:12;98788.94;;;13.62;100.00
74834;BME280;63361;52.384;20.930;2023-10-31T06:44:37;98798.44;;;13.56;100.00
74834;BME280;63361;52.384;20.930;2023-10-31T06:47:02;98776.72;;;13.20;100.00
74834;BME280;63361;52.384;20.930;2023-10-31T06:49:28;98790.28;;;13.32;100.00
74834;BME280;63361;52.384;20.930;2023-10-31T06:51:53;98775.59;;;13.21;100.00
74834;BME280;63361;52.384;20.930;2023-10-31T06:54:18;98784.31;;;13.38;100.00
74834;BME280;63361;52.384;20.930;2023-10-31T06:56:44;98800.91;;;13.37;100.00
74834;BME280;63361;52.384;20.930;2023-10-31T06:59:10;98800.44;;;13.35;100.00
74834;BME280;63361;52.384;20.930;2023-10-31T07:01:35;98795.94;;;13.39;100.00
74834;BME280;63361;52.384;20.930;2023-10-31T07:04:00;98803.94;;;13.35;100.00
74834;BME280;63361;52.384;20.930;2023-10-31T07:06:26;98796.03;;;13.30;100.00
74834;BME280;63361;52.384;20.930;2023-10-31T07:08:51;98804.56;;;13.08;100.00
74834;BME280;63361;52.384;20.930;2023-10-31T07:11:16;98779.66;;;12.82;100.00
74834;BME280;63361;52.384;20.930;2023-10-31T07:13:41;98803.91;;;12.78;100.00
74834;BME280;63361;52.384;20.930;2023-10-31T07:16:07;98784.78;;;12.62;100.00
74834;BME280;63361;52.384;20.930;2023-10-31T07:18:32;98802.66;;;12.55;100.00
74834;BME280;63361;52.384;20.930;2023-10-31T07:20:58;98797.47;;;12.50;100.00
74834;BME280;63361;52.384;20.930;2023-10-31T07:23:23;98787.97;;;12.44;100.00
74834;BME280;63361;52.384;20.930;2023-10-31T07:25:48;98799.72;;;12.48;100.00
74834;BME280;63361;52.384;20.930;2023-10-31T07:28:13;98797.34;;;12.46;100.00
74834;BME280;63361;52.384;20.930;2023-10-31T07:30:39;98797.72;;;12.57;100.00
74834;BME280;63361;52.384;20.930;2023-10-31T07:33:04;98806.44;;;12.62;100.00
74834;BME280;63361;52.384;20.930;2023-10-31T07:35:29;98795.06;;;12.69;100.00
74834;BME280;63361;52.384;20.930;2023-10-31T07:37:54;98782.31;;;12.69;100.00
74834;BME280;63361;52.384;20.930;2023-10-31T07:40:20;98767.03;;;12.86;100.00
74834;BME280;63361;52.384;20.930;2023-10-31T07:42:45;98787.03;;;13.06;100.00
74834;BME280;63361;52.384;20.930;2023-10-31T07:45:10;98788.00;;;13.22;100.00
74834;BME280;63361;52.384;20.930;2023-10-31T07:47:36;98772.22;;;13.24;100.00
74834;BME280;63361;52.384;20.930;2023-10-31T07:50:02;98774.66;;;13.17;100.00
74834;BME280;63361;52.384;20.930;2023-10-31T07:52:27;98785.50;;;13.17;100.00
74834;BME280;63361;52.384;20.930;2023-10-31T07:54:53;98776.91;;;13.15;100.00
74834;BME280;63361;52.384;20.930;2023-10-31T07:57:18;98770.59;;;13.11;100.00
74834;BME280;63361;52.384;20.930;2023-10-31T07:59:44;98772.38;;;13.07;100.00
74834;BME280;63361;52.384;20.930;2023-10-31T08:02:10;98793.06;;;13.11;100.00
74834;BME280;63361;52.384;20.930;2023-10-31T08:04:35;98787.59;;;12.99;100.00
74834;BME280;63361;52.384;20.930;2023-10-31T08:07:00;98757.75;;;13.20;100.00
74834;BME280;63361;52.384;20.930;2023-10-31T08:09:26;98751.28;;;13.12;100.00
74834;BME280;63361;52.384;20.930;2023-10-31T08:11:51;98743.03;;;12.96;100.00
74834;BME280;63361;52.384;20.930;2023-10-31T08:14:17;98727.63;;;12.76;100.00
74834;BME280;63361;52.384;20.930;2023-10-31T08:16:42;98745.78;;;12.76;100.00
74834;BME280;63361;52.384;20.930;2023-10-31T08:19:07;98744.47;;;12.94;100.00
74834;BME280;63361;52.384;20.930;2023-10-31T08:21:33;98733.66;;;12.94;100.00
74834;BME280;63361;52.384;20.930;2023-10-31T08:24:03;98736.03;;;12.95;100.00
74834;BME280;63361;52.384;20.930;2023-10-31T08:26:30;98749.84;;;13.15;100.00
74834;BME280;63361;52.384;20.930;2023-10-31T08:28:56;98729.78;;;13.28;100.00
74834;BME280;63361;52.384;20.930;2023-10-31T08:31:21;98740.25;;;13.29;100.00
74834;BME280;63361;52.384;20.930;2023-10-31T08:33:46;98729.88;;;13.44;100.00
74834;BME280;63361;52.384;20.930;2023-10-31T08:36:12;98726.38;;;13.43;100.00
74834;BME280;63361;52.384;20.930;2023-10-31T08:38:38;98733.38;;;13.56;100.00
74834;BME280;63361;52.384;20.930;2023-10-31T08:41:03;98724.34;;;13.52;100.00
74834;BME280;63361;52.384;20.930;2023-10-31T08:43:28;98699.00;;;13.60;100.00
74834;BME280;63361;52.384;20.930;2023-10-31T08:45:54;98711.06;;;13.87;100.00
74834;BME280;63361;52.384;20.930;2023-10-31T08:48:19;98695.56;;;13.88;100.00
74834;BME280;63361;52.384;20.930;2023-10-31T08:50:45;98701.16;;;14.07;100.00
74834;BME280;63361;52.384;20.930;2023-10-31T08:53:11;98716.09;;;14.41;100.00
74834;BME280;63361;52.384;20.930;2023-10-31T08:55:36;98698.38;;;14.75;100.00
74834;BME280;63361;52.384;20.930;2023-10-31T08:58:01;98724.19;;;14.97;100.00
74834;BME280;63361;52.384;20.930;2023-10-31T09:00:27;98711.53;;;15.04;100.00
74834;BME280;63361;52.384;20.930;2023-10-31T09:02:54;98713.56;;;15.07;100.00
74834;BME280;63361;52.384;20.930;2023-10-31T09:05:19;98716.88;;;15.01;100.00
74834;BME280;63361;52.384;20.930;2023-10-31T09:07:44;98701.56;;;15.08;100.00
74834;BME280;63361;52.384;20.930;2023-10-31T09:10:12;98703.97;;;15.29;100.00
74834;BME280;63361;52.384;20.930;2023-10-31T09:12:37;98706.63;;;15.57;100.00
74834;BME280;63361;52.384;20.930;2023-10-31T09:15:03;98711.50;;;15.67;100.00
74834;BME280;63361;52.384;20.930;2023-10-31T09:17:29;98703.13;;;15.76;100.00
74834;BME280;63361;52.384;20.930;2023-10-31T09:19:54;98697.78;;;15.79;100.00
74834;BME280;63361;52.384;20.930;2023-10-31T09:22:19;98703.16;;;15.95;100.00
74834;BME280;63361;52.384;20.930;2023-10-31T09:24:45;98687.19;;;15.94;100.00
74834;BME280;63361;52.384;20.930;2023-10-31T09:27:10;98717.47;;;15.92;100.00
74834;BME280;63361;52.384;20.930;2023-10-31T09:29:35;98700.59;;;16.02;100.00
74834;BME280;63361;52.384;20.930;2023-10-31T09:32:01;98703.81;;;16.08;100.00
74834;BME280;63361;52.384;20.930;2023-10-31T09:34:26;98718.84;;;16.21;100.00
74834;BME280;63361;52.384;20.930;2023-10-31T09:36:51;98713.28;;;16.14;100.00
74834;BME280;63361;52.384;20.930;2023-10-31T09:39:17;98726.16;;;15.98;100.00
74834;BME280;63361;52.384;20.930;2023-10-31T09:41:42;98741.06;;;15.53;100.00
74834;BME280;63361;52.384;20.930;2023-10-31T09:44:08;98741.97;;;15.26;100.00
74834;BME280;63361;52.384;20.930;2023-10-31T09:46:34;98737.38;;;14.83;100.00
74834;BME280;63361;52.384;20.930;2023-10-31T09:49:00;98739.81;;;14.72;100.00
74834;BME280;63361;52.384;20.930;2023-10-31T09:51:26;98733.13;;;14.54;100.00
74834;BME280;63361;52.384;20.930;2023-10-31T09:53:54;98737.69;;;14.50;100.00
74834;BME280;63361;52.384;20.930;2023-10-31T09:56:21;98742.22;;;14.46;100.00
74834;BME280;63361;52.384;20.930;2023-10-31T09:58:48;98748.28;;;14.55;100.00
74834;BME280;63361;52.384;20.930;2023-10-31T10:01:13;98713.69;;;14.67;100.00
74834;BME280;63361;52.384;20.930;2023-10-31T10:03:40;98712.66;;;14.88;100.00
74834;BME280;63361;52.384;20.930;2023-10-31T10:06:06;98728.97;;;15.35;100.00
74834;BME280;63361;52.384;20.930;2023-10-31T10:08:31;98722.41;;;15.36;100.00
74834;BME280;63361;52.384;20.930;2023-10-31T10:10:57;98724.66;;;15.49;100.00
74834;BME280;63361;52.384;20.930;2023-10-31T10:13:23;98738.88;;;15.59;100.00
74834;BME280;63361;52.384;20.930;2023-10-31T10:15:49;98725.81;;;15.48;100.00
74834;BME280;63361;52.384;20.930;2023-10-31T10:18:34;98743.16;;;15.44;100.00
74834;BME280;63361;52.384;20.930;2023-10-31T10:21:02;98730.81;;;15.46;100.00
74834;BME280;63361;52.384;20.930;2023-10-31T10:23:28;98739.72;;;15.78;100.00
74834;BME280;63361;52.384;20.930;2023-10-31T10:25:56;98729.81;;;15.86;100.00
74834;BME280;63361;52.384;20.930;2023-10-31T10:28:22;98725.94;;;16.06;100.00
74834;BME280;63361;52.384;20.930;2023-10-31T10:30:50;98740.66;;;16.40;100.00
74834;BME280;63361;52.384;20.930;2023-10-31T10:33:16;98738.84;;;16.67;100.00
74834;BME280;63361;52.384;20.930;2023-10-31T10:35:42;98760.09;;;17.00;100.00
74834;BME280;63361;52.384;20.930;2023-10-31T10:38:10;98748.41;;;17.22;100.00
74834;BME280;63361;52.384;20.930;2023-10-31T10:40:41;98745.38;;;17.05;100.00
74834;BME280;63361;52.384;20.930;2023-10-31T10:43:13;98744.59;;;17.04;100.00
74834;BME280;63361;52.384;20.930;2023-10-31T10:45:43;98741.56;;;17.09;100.00
74834;BME280;63361;52.384;20.930;2023-10-31T10:48:12;98737.28;;;17.08;100.00
74834;BME280;63361;52.384;20.930;2023-10-31T10:50:45;98748.97;;;17.09;100.00
74834;BME280;63361;52.384;20.930;2023-10-31T10:53:24;98741.38;;;16.99;100.00
74834;BME280;63361;52.384;20.930;2023-10-31T10:56:00;98729.50;;;16.87;100.00
74834;BME280;63361;52.384;20.930;2023-10-31T10:58:49;98734.53;;;17.08;100.00
74834;BME280;63361;52.384;20.930;2023-10-31T11:01:16;98743.84;;;17.30;100.00
74834;BME280;63361;52.384;20.930;2023-10-31T11:03:44;98731.19;;;17.41;100.00
74834;BME280;63361;52.384;20.930;2023-10-31T11:06:10;98738.25;;;17.46;100.00
74834;BME280;63361;52.384;20.930;2023-10-31T11:08:36;98751.91;;;17.46;100.00
74834;BME280;63361;52.384;20.930;2023-10-31T11:11:02;98742.03;;;17.38;100.00
74834;BME280;63361;52.384;20.930;2023-10-31T11:13:29;98741.97;;;17.34;100.00
74834;BME280;63361;52.384;20.930;2023-10-31T11:15:57;98742.59;;;17.24;100.00
74834;BME280;63361;52.384;20.930;2023-10-31T11:18:25;98757.81;;;17.25;100.00
74834;BME280;63361;52.384;20.930;2023-10-31T11:20:50;98759.44;;;17.30;100.00
74834;BME280;63361;52.384;20.930;2023-10-31T11:23:16;98753.06;;;17.22;100.00
74834;BME280;63361;52.384;20.930;2023-10-31T11:25:43;98767.50;;;17.22;100.00
74834;BME280;63361;52.384;20.930;2023-10-31T11:28:12;98773.69;;;17.19;100.00
74834;BME280;63361;52.384;20.930;2023-10-31T11:30:39;98776.59;;;17.07;100.00
74834;BME280;63361;52.384;20.930;2023-10-31T11:33:05;98743.88;;;17.07;100.00
74834;BME280;63361;52.384;20.930;2023-10-31T11:35:33;98773.94;;;17.11;100.00
74834;BME280;63361;52.384;20.930;2023-10-31T11:38:04;98763.31;;;17.06;100.00
74834;BME280;63361;52.384;20.930;2023-10-31T11:40:31;98763.97;;;16.99;100.00
74834;BME280;63361;52.384;20.930;2023-10-31T11:42:57;98790.16;;;17.04;100.00
74834;BME280;63361;52.384;20.930;2023-10-31T11:45:37;98788.94;;;16.82;100.00
74834;BME280;63361;52.384;20.930;2023-10-31T11:48:07;98797.88;;;16.79;100.00
74834;BME280;63361;52.384;20.930;2023-10-31T11:50:33;98791.47;;;16.71;100.00
74834;BME280;63361;52.384;20.930;2023-10-31T11:55:33;98791.94;;;16.38;100.00
74834;BME280;63361;52.384;20.930;2023-10-31T11:58:24;98787.78;;;16.25;100.00
74834;BME280;63361;52.384;20.930;2023-10-31T12:01:02;98769.88;;;16.24;100.00
74834;BME280;63361;52.384;20.930;2023-10-31T12:03:36;98791.53;;;16.56;100.00
74834;BME280;63361;52.384;20.930;2023-10-31T12:06:02;98799.94;;;16.66;100.00
74834;BME280;63361;52.384;20.930;2023-10-31T12:08:33;98808.91;;;16.67;100.00
74834;BME280;63361;52.384;20.930;2023-10-31T12:13:42;98804.59;;;16.46;100.00
74834;BME280;63361;52.384;20.930;2023-10-31T12:16:16;98804.59;;;16.46;100.00
74834;BME280;63361;52.384;20.930;2023-10-31T12:18:42;98806.66;;;16.53;100.00
74834;BME280;63361;52.384;20.930;2023-10-31T12:21:07;98801.91;;;16.50;100.00
74834;BME280;63361;52.384;20.930;2023-10-31T12:23:34;98778.63;;;16.33;100.00
74834;BME280;63361;52.384;20.930;2023-10-31T12:25:59;98809.09;;;16.58;100.00
74834;BME280;63361;52.384;20.930;2023-10-31T12:28:25;98811.81;;;16.58;100.00
74834;BME280;63361;52.384;20.930;2023-10-31T12:30:52;98801.50;;;16.48;100.00
74834;BME280;63361;52.384;20.930;2023-10-31T12:33:25;98807.34;;;16.50;100.00
74834;BME280;63361;52.384;20.930;2023-10-31T12:35:52;98818.84;;;16.40;100.00
74834;BME280;63361;52.384;20.930;2023-10-31T12:38:21;98814.31;;;16.28;100.00
74834;BME280;63361;52.384;20.930;2023-10-31T12:40:47;98822.47;;;16.28;100.00
74834;BME280;63361;52.384;20.930;2023-10-31T12:43:13;98815.81;;;16.26;100.00